Startpagina
METAR-TAF:

METAR-TAF

Vliegvelden :

Luchthaven Kraków-Balice

Krakau, Polen

breedte: 50-05N, lengte: 019-48E, hoogte: 237 m

Actueel weer

Dit bericht is 16 minuten geleden gemaakt, om 22:30 UTC
Wind 6 kt uit het noordnoordoosten
Temperatuur 14°C
Vochtigheid 94%
Druk 1022 hPa
Zicht 10 km of meer
Weinig wolken op 4100 ft

METAR: EPKK 232230Z 03006KT 9999 FEW041 14/13 Q1022

Tijdstip: 00:46 (22:46 UTC)

Verwachting

Dit bericht is 2 uur en het 16 minuten geleden gemaakt, om 20:30 UTC
Verwachting geldig van 23 om 21 UTC tot 24 om 21 UTC
Wind 7 kt uit het noordoosten
Zicht 10 km of meer
geen wolken onder 1500 m en geen cumulonimbus
Tijdelijke
van 24 om 09 UTC tot 24 om 16 UTC
Verspreide wolken op 4000 ft, Stapelwolken.

TAF: EPKK 232030Z 2321/2421 05007KT CAVOK TEMPO 2409/2416 SCT040TCU

Waarnemingen en weersverwachtingen van meer dan 4000 vliegvelden (METAR en TAF).

De beschikbare stations zijn de gele en rode punten op de kaart.

Ga met uw muis naar het station om de naam te zien.

Klik dan om waarnemingen en weersverwachtingen te zien.

kaart wijzigen: klik op de groene knoppen met een zwart kruis om in te zoomen, op de groene knop met een streepje om uit te zoomen of op de groene pijlen voor aangrenzende kaarten.


METAR-TAF: